This is the latest recevied weather packets stored in our database for station/object 9M4RBN-3. If no packets are shown the sender has not sent any weather packets the latest 10 day(s).
| Time | Temp. | Humidity | Pressure | Rain* | Wind** | Luminosity | Snow |
|---|---|---|---|---|---|---|---|
| 1777589490 | 23.89° C | 51% | 1014.8 hPa | - | - | - | - |
| 1777588590 | 24.44° C | 51% | 1014.7 hPa | - | - | - | - |
| 1777587690 | 24.44° C | 51% | 1014.5 hPa | - | - | - | - |
| 1777586790 | 24.44° C | 51% | 1014.7 hPa | - | - | - | - |
| 1777585890 | 24.44° C | 50% | 1014.6 hPa | - | - | - | - |
| 1777584989 | 25° C | 50% | 1014.5 hPa | - | - | - | - |
| 1777584089 | 25° C | 50% | 1014.4 hPa | - | - | - | - |
| 1777583189 | 25.56° C | 50% | 1014.4 hPa | - | - | - | - |
| 1777582289 | 26.11° C | 51% | 1014.4 hPa | - | - | - | - |
| 1777581389 | 26.67° C | 54% | 1014.4 hPa | - | - | - | - |
| 1777580489 | 27.22° C | 65% | 1014.3 hPa | - | - | - | - |
| 1777579589 | 27.78° C | 76% | 1014.3 hPa | - | - | - | - |
| 1777578689 | 27.78° C | 75% | 1014.4 hPa | - | - | - | - |
| 1777577789 | 27.78° C | 74% | 1014.5 hPa | - | - | - | - |
| 1777576959 | 27.78° C | 73% | 1014.7 hPa | - | - | - | - |
| 1777576889 | 27.78° C | 73% | 1014.7 hPa | - | - | - | - |
| 1777575989 | 27.78° C | 72% | 1015 hPa | - | - | - | - |
| 1777575089 | 27.78° C | 70% | 1015.1 hPa | - | - | - | - |
| 1777574189 | 27.78° C | 69% | 1015.4 hPa | - | - | - | - |
| 1777573289 | 27.78° C | 68% | 1015.7 hPa | - | - | - | - |
| 1777572389 | 27.78° C | 67% | 1015.7 hPa | - | - | - | - |
| 1777571489 | 27.22° C | 66% | 1016 hPa | - | - | - | - |
| 1777570589 | 27.22° C | 65% | 1016 hPa | - | - | - | - |
| 1777569688 | 27.22° C | 64% | 1016.2 hPa | - | - | - | - |
| 1777568789 | 26.67° C | 63% | 1016.3 hPa | - | - | - | - |
* Rain since midnight (hover to see other rain measurements)
** Current wind speed in m/s (hover to see current wind gust speed)